sensor_id;sensor_type;location;lat;lon;timestamp;temperature;humidity
6206;DHT22;3136;48.788;9.772;2022-08-24T00:00:59;13.90;99.90
6206;DHT22;3136;48.788;9.772;2022-08-24T00:03:25;13.80;99.90
6206;DHT22;3136;48.788;9.772;2022-08-24T00:05:51;13.90;99.90
6206;DHT22;3136;48.788;9.772;2022-08-24T00:08:18;13.90;99.90
6206;DHT22;3136;48.788;9.772;2022-08-24T00:10:44;13.80;99.90
6206;DHT22;3136;48.788;9.772;2022-08-24T00:13:11;13.80;99.90
6206;DHT22;3136;48.788;9.772;2022-08-24T00:15:37;13.70;99.90
6206;DHT22;3136;48.788;9.772;2022-08-24T00:18:03;13.70;99.90
6206;DHT22;3136;48.788;9.772;2022-08-24T00:20:28;13.70;99.90
6206;DHT22;3136;48.788;9.772;2022-08-24T00:22:54;13.60;99.90
6206;DHT22;3136;48.788;9.772;2022-08-24T00:25:20;13.70;99.90
6206;DHT22;3136;48.788;9.772;2022-08-24T00:27:46;13.70;1.00
6206;DHT22;3136;48.788;9.772;2022-08-24T00:30:15;13.60;99.90
6206;DHT22;3136;48.788;9.772;2022-08-24T00:32:42;13.60;99.90
6206;DHT22;3136;48.788;9.772;2022-08-24T00:35:08;13.60;99.90
6206;DHT22;3136;48.788;9.772;2022-08-24T00:37:35;13.50;99.90
6206;DHT22;3136;48.788;9.772;2022-08-24T00:40:06;13.70;99.90
6206;DHT22;3136;48.788;9.772;2022-08-24T00:42:33;13.50;1.00
6206;DHT22;3136;48.788;9.772;2022-08-24T00:45:00;13.50;1.00
6206;DHT22;3136;48.788;9.772;2022-08-24T00:47:30;13.40;1.00
6206;DHT22;3136;48.788;9.772;2022-08-24T00:50:04;13.40;1.00
6206;DHT22;3136;48.788;9.772;2022-08-24T00:52:52;13.40;1.00
6206;DHT22;3136;48.788;9.772;2022-08-24T00:55:27;13.40;1.00
6206;DHT22;3136;48.788;9.772;2022-08-24T00:57:58;13.30;1.00
6206;DHT22;3136;48.788;9.772;2022-08-24T01:00:28;13.30;1.00
6206;DHT22;3136;48.788;9.772;2022-08-24T01:03:00;13.40;1.00
6206;DHT22;3136;48.788;9.772;2022-08-24T01:05:30;13.20;1.00
6206;DHT22;3136;48.788;9.772;2022-08-24T01:07:56;13.20;1.00
6206;DHT22;3136;48.788;9.772;2022-08-24T01:10:24;13.20;1.00
6206;DHT22;3136;48.788;9.772;2022-08-24T01:12:53;13.10;1.00
6206;DHT22;3136;48.788;9.772;2022-08-24T01:15:19;13.20;1.00
6206;DHT22;3136;48.788;9.772;2022-08-24T01:17:48;13.10;1.00
6206;DHT22;3136;48.788;9.772;2022-08-24T01:20:32;13.10;1.00
6206;DHT22;3136;48.788;9.772;2022-08-24T01:25:29;13.00;1.00
6206;DHT22;3136;48.788;9.772;2022-08-24T01:27:59;13.00;1.00
6206;DHT22;3136;48.788;9.772;2022-08-24T01:30:25;13.00;1.00
6206;DHT22;3136;48.788;9.772;2022-08-24T01:32:57;13.00;1.00
6206;DHT22;3136;48.788;9.772;2022-08-24T01:35:24;13.00;1.00
6206;DHT22;3136;48.788;9.772;2022-08-24T01:37:50;12.90;1.00
6206;DHT22;3136;48.788;9.772;2022-08-24T01:40:17;12.90;1.00
6206;DHT22;3136;48.788;9.772;2022-08-24T01:42:49;12.80;1.00
6206;DHT22;3136;48.788;9.772;2022-08-24T01:45:15;12.80;1.00
6206;DHT22;3136;48.788;9.772;2022-08-24T01:47:41;12.80;1.00
6206;DHT22;3136;48.788;9.772;2022-08-24T01:50:06;12.80;1.00
6206;DHT22;3136;48.788;9.772;2022-08-24T01:52:32;12.70;1.00
6206;DHT22;3136;48.788;9.772;2022-08-24T01:54:58;12.80;1.00
6206;DHT22;3136;48.788;9.772;2022-08-24T01:57:25;12.80;1.00
6206;DHT22;3136;48.788;9.772;2022-08-24T01:59:51;12.70;1.00
6206;DHT22;3136;48.788;9.772;2022-08-24T02:02:25;12.60;1.00
6206;DHT22;3136;48.788;9.772;2022-08-24T02:04:51;12.70;1.00
6206;DHT22;3136;48.788;9.772;2022-08-24T02:07:17;12.70;1.00
6206;DHT22;3136;48.788;9.772;2022-08-24T02:09:44;12.60;1.00
6206;DHT22;3136;48.788;9.772;2022-08-24T02:12:10;12.60;1.00
6206;DHT22;3136;48.788;9.772;2022-08-24T02:14:36;12.60;1.00
6206;DHT22;3136;48.788;9.772;2022-08-24T02:17:02;12.50;1.00
6206;DHT22;3136;48.788;9.772;2022-08-24T02:19:28;12.50;1.00
6206;DHT22;3136;48.788;9.772;2022-08-24T02:21:54;12.50;1.00
6206;DHT22;3136;48.788;9.772;2022-08-24T02:24:20;12.40;1.00
6206;DHT22;3136;48.788;9.772;2022-08-24T02:26:45;12.40;1.00
6206;DHT22;3136;48.788;9.772;2022-08-24T02:29:11;12.40;1.00
6206;DHT22;3136;48.788;9.772;2022-08-24T02:31:36;12.50;1.00
6206;DHT22;3136;48.788;9.772;2022-08-24T02:34:03;12.40;1.00
6206;DHT22;3136;48.788;9.772;2022-08-24T02:36:28;12.30;1.00
6206;DHT22;3136;48.788;9.772;2022-08-24T02:38:55;12.30;1.00
6206;DHT22;3136;48.788;9.772;2022-08-24T02:41:21;12.20;1.00
6206;DHT22;3136;48.788;9.772;2022-08-24T02:43:50;12.40;1.00
6206;DHT22;3136;48.788;9.772;2022-08-24T02:46:21;12.20;1.00
6206;DHT22;3136;48.788;9.772;2022-08-24T02:48:47;12.20;1.00
6206;DHT22;3136;48.788;9.772;2022-08-24T02:51:25;12.30;1.00
6206;DHT22;3136;48.788;9.772;2022-08-24T02:53:51;12.20;1.00
6206;DHT22;3136;48.788;9.772;2022-08-24T02:56:17;12.20;1.00
6206;DHT22;3136;48.788;9.772;2022-08-24T02:58:47;12.20;1.00
6206;DHT22;3136;48.788;9.772;2022-08-24T03:01:13;12.10;1.00
6206;DHT22;3136;48.788;9.772;2022-08-24T03:03:40;12.10;1.00
6206;DHT22;3136;48.788;9.772;2022-08-24T03:06:07;12.20;1.00
6206;DHT22;3136;48.788;9.772;2022-08-24T03:08:33;12.10;1.00
6206;DHT22;3136;48.788;9.772;2022-08-24T03:10:58;12.10;1.00
6206;DHT22;3136;48.788;9.772;2022-08-24T03:13:26;12.10;1.00
6206;DHT22;3136;48.788;9.772;2022-08-24T03:15:53;12.20;1.00
6206;DHT22;3136;48.788;9.772;2022-08-24T03:18:20;12.00;1.00
6206;DHT22;3136;48.788;9.772;2022-08-24T03:20:46;12.00;1.00
6206;DHT22;3136;48.788;9.772;2022-08-24T03:23:11;11.90;1.00
6206;DHT22;3136;48.788;9.772;2022-08-24T03:25:37;11.90;1.00
6206;DHT22;3136;48.788;9.772;2022-08-24T03:28:02;11.90;1.00
6206;DHT22;3136;48.788;9.772;2022-08-24T03:30:28;11.90;1.00
6206;DHT22;3136;48.788;9.772;2022-08-24T03:32:54;11.80;1.00
6206;DHT22;3136;48.788;9.772;2022-08-24T03:35:19;12.00;1.00
6206;DHT22;3136;48.788;9.772;2022-08-24T03:37:49;11.80;1.00
6206;DHT22;3136;48.788;9.772;2022-08-24T03:40:15;11.80;1.00
6206;DHT22;3136;48.788;9.772;2022-08-24T03:42:41;11.80;1.00
6206;DHT22;3136;48.788;9.772;2022-08-24T03:45:08;11.80;1.00
6206;DHT22;3136;48.788;9.772;2022-08-24T03:47:34;11.80;1.00
6206;DHT22;3136;48.788;9.772;2022-08-24T03:50:00;11.80;1.00
6206;DHT22;3136;48.788;9.772;2022-08-24T03:52:26;11.80;1.00
6206;DHT22;3136;48.788;9.772;2022-08-24T03:54:52;11.80;1.00
6206;DHT22;3136;48.788;9.772;2022-08-24T03:57:17;11.80;1.00
6206;DHT22;3136;48.788;9.772;2022-08-24T03:59:43;11.80;1.00
6206;DHT22;3136;48.788;9.772;2022-08-24T04:02:08;11.70;1.00
6206;DHT22;3136;48.788;9.772;2022-08-24T04:04:34;11.70;1.00
6206;DHT22;3136;48.788;9.772;2022-08-24T04:07:00;11.70;1.00
6206;DHT22;3136;48.788;9.772;2022-08-24T04:09:25;11.80;1.00
6206;DHT22;3136;48.788;9.772;2022-08-24T04:11:51;11.70;1.00
6206;DHT22;3136;48.788;9.772;2022-08-24T04:14:17;11.60;1.00
6206;DHT22;3136;48.788;9.772;2022-08-24T04:16:43;11.60;1.00
6206;DHT22;3136;48.788;9.772;2022-08-24T04:19:10;11.60;1.00
6206;DHT22;3136;48.788;9.772;2022-08-24T04:21:36;11.60;1.00
6206;DHT22;3136;48.788;9.772;2022-08-24T04:24:05;11.60;1.00
6206;DHT22;3136;48.788;9.772;2022-08-24T04:26:31;11.60;1.00
6206;DHT22;3136;48.788;9.772;2022-08-24T04:28:57;11.50;1.00
6206;DHT22;3136;48.788;9.772;2022-08-24T04:31:24;11.60;1.00
6206;DHT22;3136;48.788;9.772;2022-08-24T04:33:51;11.50;1.00
6206;DHT22;3136;48.788;9.772;2022-08-24T04:36:18;11.50;1.00
6206;DHT22;3136;48.788;9.772;2022-08-24T04:38:46;11.50;1.00
6206;DHT22;3136;48.788;9.772;2022-08-24T04:41:13;11.40;1.00
6206;DHT22;3136;48.788;9.772;2022-08-24T04:43:40;11.50;1.00
6206;DHT22;3136;48.788;9.772;2022-08-24T04:46:11;11.40;1.00
6206;DHT22;3136;48.788;9.772;2022-08-24T04:48:40;11.50;1.00
6206;DHT22;3136;48.788;9.772;2022-08-24T04:51:07;11.50;1.00
6206;DHT22;3136;48.788;9.772;2022-08-24T04:53:34;11.50;1.00
6206;DHT22;3136;48.788;9.772;2022-08-24T04:56:01;11.50;1.00
6206;DHT22;3136;48.788;9.772;2022-08-24T04:58:28;11.50;1.00
6206;DHT22;3136;48.788;9.772;2022-08-24T05:00:54;11.50;1.00
6206;DHT22;3136;48.788;9.772;2022-08-24T05:03:20;11.50;1.00
6206;DHT22;3136;48.788;9.772;2022-08-24T05:05:49;11.50;1.00
6206;DHT22;3136;48.788;9.772;2022-08-24T05:08:18;11.60;1.00
6206;DHT22;3136;48.788;9.772;2022-08-24T05:10:46;11.60;1.00
6206;DHT22;3136;48.788;9.772;2022-08-24T05:13:13;11.60;1.00
6206;DHT22;3136;48.788;9.772;2022-08-24T05:15:44;11.70;1.00
6206;DHT22;3136;48.788;9.772;2022-08-24T05:18:11;11.80;1.00
6206;DHT22;3136;48.788;9.772;2022-08-24T05:20:42;11.80;1.00
6206;DHT22;3136;48.788;9.772;2022-08-24T05:23:08;11.80;1.00
6206;DHT22;3136;48.788;9.772;2022-08-24T05:25:34;11.90;1.00
6206;DHT22;3136;48.788;9.772;2022-08-24T05:27:59;11.90;1.00
6206;DHT22;3136;48.788;9.772;2022-08-24T05:30:25;12.00;1.00
6206;DHT22;3136;48.788;9.772;2022-08-24T05:32:51;12.00;1.00
6206;DHT22;3136;48.788;9.772;2022-08-24T05:35:16;12.10;1.00
6206;DHT22;3136;48.788;9.772;2022-08-24T05:37:42;12.10;1.00
6206;DHT22;3136;48.788;9.772;2022-08-24T05:40:10;12.30;1.00
6206;DHT22;3136;48.788;9.772;2022-08-24T05:42:37;12.30;1.00
6206;DHT22;3136;48.788;9.772;2022-08-24T05:45:03;12.70;1.00
6206;DHT22;3136;48.788;9.772;2022-08-24T05:47:29;12.50;1.00
6206;DHT22;3136;48.788;9.772;2022-08-24T05:49:55;12.60;1.00
6206;DHT22;3136;48.788;9.772;2022-08-24T05:52:21;12.80;1.00
6206;DHT22;3136;48.788;9.772;2022-08-24T05:54:57;12.80;1.00
6206;DHT22;3136;48.788;9.772;2022-08-24T05:57:24;12.90;1.00
6206;DHT22;3136;48.788;9.772;2022-08-24T05:59:50;13.00;1.00
6206;DHT22;3136;48.788;9.772;2022-08-24T06:02:16;13.10;1.00
6206;DHT22;3136;48.788;9.772;2022-08-24T06:04:42;13.30;1.00
6206;DHT22;3136;48.788;9.772;2022-08-24T06:07:09;13.40;1.00
6206;DHT22;3136;48.788;9.772;2022-08-24T06:09:39;13.50;1.00
6206;DHT22;3136;48.788;9.772;2022-08-24T06:12:05;13.60;99.90
6206;DHT22;3136;48.788;9.772;2022-08-24T06:14:31;13.70;99.90
6206;DHT22;3136;48.788;9.772;2022-08-24T06:16:58;13.80;99.90
6206;DHT22;3136;48.788;9.772;2022-08-24T06:19:24;13.80;99.90
6206;DHT22;3136;48.788;9.772;2022-08-24T06:21:52;14.00;99.90
6206;DHT22;3136;48.788;9.772;2022-08-24T06:24:19;14.20;37.50
6206;DHT22;3136;48.788;9.772;2022-08-24T06:27:05;14.20;1.00
6206;DHT22;3136;48.788;9.772;2022-08-24T06:29:45;14.40;1.00
6206;DHT22;3136;48.788;9.772;2022-08-24T06:32:11;14.40;99.90
6206;DHT22;3136;48.788;9.772;2022-08-24T06:34:37;14.60;99.90
6206;DHT22;3136;48.788;9.772;2022-08-24T06:37:04;14.70;1.00
6206;DHT22;3136;48.788;9.772;2022-08-24T06:39:29;14.80;1.00
6206;DHT22;3136;48.788;9.772;2022-08-24T06:41:55;14.90;99.90
6206;DHT22;3136;48.788;9.772;2022-08-24T06:44:20;15.10;50.40
6206;DHT22;3136;48.788;9.772;2022-08-24T06:46:46;15.20;1.00
6206;DHT22;3136;48.788;9.772;2022-08-24T06:49:11;15.40;99.90
6206;DHT22;3136;48.788;9.772;2022-08-24T06:51:37;15.60;1.00
6206;DHT22;3136;48.788;9.772;2022-08-24T06:54:03;15.70;1.00
6206;DHT22;3136;48.788;9.772;2022-08-24T06:56:29;15.80;68.00
6206;DHT22;3136;48.788;9.772;2022-08-24T06:58:55;16.00;99.90
6206;DHT22;3136;48.788;9.772;2022-08-24T07:01:23;16.20;1.00
6206;DHT22;3136;48.788;9.772;2022-08-24T07:03:49;16.30;1.00
6206;DHT22;3136;48.788;9.772;2022-08-24T07:06:15;16.40;1.00
6206;DHT22;3136;48.788;9.772;2022-08-24T07:08:42;16.60;1.00
6206;DHT22;3136;48.788;9.772;2022-08-24T07:11:10;16.70;1.00
6206;DHT22;3136;48.788;9.772;2022-08-24T07:13:36;16.80;22.40
6206;DHT22;3136;48.788;9.772;2022-08-24T07:16:03;17.00;1.00
6206;DHT22;3136;48.788;9.772;2022-08-24T07:18:29;17.20;99.90
6206;DHT22;3136;48.788;9.772;2022-08-24T07:20:55;17.40;1.00
6206;DHT22;3136;48.788;9.772;2022-08-24T07:23:21;17.50;99.90
6206;DHT22;3136;48.788;9.772;2022-08-24T07:25:47;17.60;1.00
6206;DHT22;3136;48.788;9.772;2022-08-24T07:28:13;17.70;1.00
6206;DHT22;3136;48.788;9.772;2022-08-24T07:30:40;17.80;99.90
6206;DHT22;3136;48.788;9.772;2022-08-24T07:33:06;18.00;99.90
6206;DHT22;3136;48.788;9.772;2022-08-24T07:35:34;18.10;99.90
6206;DHT22;3136;48.788;9.772;2022-08-24T07:38:00;18.20;1.00
6206;DHT22;3136;48.788;9.772;2022-08-24T07:40:27;18.20;1.00
6206;DHT22;3136;48.788;9.772;2022-08-24T07:42:54;18.40;1.00
6206;DHT22;3136;48.788;9.772;2022-08-24T07:45:20;18.60;1.00
6206;DHT22;3136;48.788;9.772;2022-08-24T07:47:47;18.80;99.90
6206;DHT22;3136;48.788;9.772;2022-08-24T07:50:13;19.00;99.90
6206;DHT22;3136;48.788;9.772;2022-08-24T07:52:39;19.00;99.90
6206;DHT22;3136;48.788;9.772;2022-08-24T07:55:06;19.10;99.90
6206;DHT22;3136;48.788;9.772;2022-08-24T07:57:32;19.30;99.90
6206;DHT22;3136;48.788;9.772;2022-08-24T07:59:59;19.40;99.90
6206;DHT22;3136;48.788;9.772;2022-08-24T08:02:25;19.60;99.90
6206;DHT22;3136;48.788;9.772;2022-08-24T08:04:53;19.80;99.90
6206;DHT22;3136;48.788;9.772;2022-08-24T08:07:20;19.90;99.90
6206;DHT22;3136;48.788;9.772;2022-08-24T08:09:45;20.10;99.90
6206;DHT22;3136;48.788;9.772;2022-08-24T08:12:11;20.10;99.90
6206;DHT22;3136;48.788;9.772;2022-08-24T08:14:37;20.30;99.90
6206;DHT22;3136;48.788;9.772;2022-08-24T08:17:03;20.40;99.90
6206;DHT22;3136;48.788;9.772;2022-08-24T08:19:29;20.60;99.90
6206;DHT22;3136;48.788;9.772;2022-08-24T08:21:55;20.70;99.90
6206;DHT22;3136;48.788;9.772;2022-08-24T08:24:40;20.80;99.90
6206;DHT22;3136;48.788;9.772;2022-08-24T08:27:09;20.90;99.90
6206;DHT22;3136;48.788;9.772;2022-08-24T08:29:36;21.10;99.90
6206;DHT22;3136;48.788;9.772;2022-08-24T08:32:05;21.30;99.90
6206;DHT22;3136;48.788;9.772;2022-08-24T08:34:31;21.40;99.90
6206;DHT22;3136;48.788;9.772;2022-08-24T08:36:57;21.50;99.90
6206;DHT22;3136;48.788;9.772;2022-08-24T08:39:23;21.50;99.90
6206;DHT22;3136;48.788;9.772;2022-08-24T08:44:47;21.60;99.90
6206;DHT22;3136;48.788;9.772;2022-08-24T08:47:34;21.60;99.90
6206;DHT22;3136;48.788;9.772;2022-08-24T08:53:16;22.00;99.90
6206;DHT22;3136;48.788;9.772;2022-08-24T08:55:48;22.10;99.90
6206;DHT22;3136;48.788;9.772;2022-08-24T08:58:44;22.30;99.90
6206;DHT22;3136;48.788;9.772;2022-08-24T09:01:41;22.50;99.90
6206;DHT22;3136;48.788;9.772;2022-08-24T09:07:07;22.80;99.90
6206;DHT22;3136;48.788;9.772;2022-08-24T09:09:40;22.90;99.90
6206;DHT22;3136;48.788;9.772;2022-08-24T09:17:35;23.40;97.80
6206;DHT22;3136;48.788;9.772;2022-08-24T09:23:15;23.90;93.60
6206;DHT22;3136;48.788;9.772;2022-08-24T09:26:16;23.90;91.90
6206;DHT22;3136;48.788;9.772;2022-08-24T09:29:02;24.00;93.20
6206;DHT22;3136;48.788;9.772;2022-08-24T09:31:52;24.10;91.50
6206;DHT22;3136;48.788;9.772;2022-08-24T09:34:28;24.10;87.40
6206;DHT22;3136;48.788;9.772;2022-08-24T09:40:33;24.20;82.60
6206;DHT22;3136;48.788;9.772;2022-08-24T09:43:28;24.30;82.70
6206;DHT22;3136;48.788;9.772;2022-08-24T10:02:38;25.00;69.60
6206;DHT22;3136;48.788;9.772;2022-08-24T10:05:27;25.10;69.40
6206;DHT22;3136;48.788;9.772;2022-08-24T10:13:24;25.30;64.30
6206;DHT22;3136;48.788;9.772;2022-08-24T10:33:27;27.40;53.90
6206;DHT22;3136;48.788;9.772;2022-08-24T10:42:20;31.10;40.00
6206;DHT22;3136;48.788;9.772;2022-08-24T10:45:40;31.90;33.50
6206;DHT22;3136;48.788;9.772;2022-08-24T10:53:32;33.30;27.50
6206;DHT22;3136;48.788;9.772;2022-08-24T10:56:16;33.70;27.30
6206;DHT22;3136;48.788;9.772;2022-08-24T10:59:15;34.20;27.30
6206;DHT22;3136;48.788;9.772;2022-08-24T11:01:59;34.00;24.10
6206;DHT22;3136;48.788;9.772;2022-08-24T11:04:28;34.40;24.90
6206;DHT22;3136;48.788;9.772;2022-08-24T11:09:54;34.50;21.60
6206;DHT22;3136;48.788;9.772;2022-08-24T11:14:56;35.10;20.30
6206;DHT22;3136;48.788;9.772;2022-08-24T11:17:25;35.00;21.20
6206;DHT22;3136;48.788;9.772;2022-08-24T11:19:52;34.70;20.10
6206;DHT22;3136;48.788;9.772;2022-08-24T11:22:37;34.50;19.70
6206;DHT22;3136;48.788;9.772;2022-08-24T11:25:19;34.40;19.40
6206;DHT22;3136;48.788;9.772;2022-08-24T11:27:49;34.60;19.60
6206;DHT22;3136;48.788;9.772;2022-08-24T11:32:46;35.10;16.30
6206;DHT22;3136;48.788;9.772;2022-08-24T11:37:50;35.70;15.10
6206;DHT22;3136;48.788;9.772;2022-08-24T11:40:19;35.80;14.00
6206;DHT22;3136;48.788;9.772;2022-08-24T11:45:33;35.90;14.20
6206;DHT22;3136;48.788;9.772;2022-08-24T11:48:13;36.40;11.60
6206;DHT22;3136;48.788;9.772;2022-08-24T11:51:06;36.00;11.30
6206;DHT22;3136;48.788;9.772;2022-08-24T12:04:24;36.30;8.90
6206;DHT22;3136;48.788;9.772;2022-08-24T12:09:51;37.00;8.00
6206;DHT22;3136;48.788;9.772;2022-08-24T12:15:34;37.00;7.60
6206;DHT22;3136;48.788;9.772;2022-08-24T12:18:04;37.50;7.30
6206;DHT22;3136;48.788;9.772;2022-08-24T12:20:37;37.90;6.10
6206;DHT22;3136;48.788;9.772;2022-08-24T12:23:19;37.30;6.50
6206;DHT22;3136;48.788;9.772;2022-08-24T12:25:54;36.90;6.00
6206;DHT22;3136;48.788;9.772;2022-08-24T12:28:37;36.70;6.00
6206;DHT22;3136;48.788;9.772;2022-08-24T12:31:21;36.50;5.30
6206;DHT22;3136;48.788;9.772;2022-08-24T12:33:51;36.30;7.80
6206;DHT22;3136;48.788;9.772;2022-08-24T12:36:31;36.50;6.10
6206;DHT22;3136;48.788;9.772;2022-08-24T12:42:05;35.90;4.10
6206;DHT22;3136;48.788;9.772;2022-08-24T12:44:58;36.40;4.30
6206;DHT22;3136;48.788;9.772;2022-08-24T12:47:34;36.70;4.10
6206;DHT22;3136;48.788;9.772;2022-08-24T12:50:11;37.20;4.70
6206;DHT22;3136;48.788;9.772;2022-08-24T12:53:00;36.50;4.80
6206;DHT22;3136;48.788;9.772;2022-08-24T12:58:39;35.70;4.70
6206;DHT22;3136;48.788;9.772;2022-08-24T13:01:10;36.30;4.20
6206;DHT22;3136;48.788;9.772;2022-08-24T13:03:39;36.10;2.60
6206;DHT22;3136;48.788;9.772;2022-08-24T13:06:15;36.20;1.90
6206;DHT22;3136;48.788;9.772;2022-08-24T13:08:44;36.40;2.10
6206;DHT22;3136;48.788;9.772;2022-08-24T13:11:13;36.30;2.20
6206;DHT22;3136;48.788;9.772;2022-08-24T13:14:27;35.90;2.80
6206;DHT22;3136;48.788;9.772;2022-08-24T13:19:30;36.40;1.40
6206;DHT22;3136;48.788;9.772;2022-08-24T13:27:44;35.10;1.60
6206;DHT22;3136;48.788;9.772;2022-08-24T13:29:42;35.40;1.00
6206;DHT22;3136;48.788;9.772;2022-08-24T13:32:19;35.10;1.00
6206;DHT22;3136;48.788;9.772;2022-08-24T13:34:47;35.50;1.00
6206;DHT22;3136;48.788;9.772;2022-08-24T13:37:21;36.00;1.40
6206;DHT22;3136;48.788;9.772;2022-08-24T13:40:15;36.10;1.40
6206;DHT22;3136;48.788;9.772;2022-08-24T13:43:11;35.70;1.00
6206;DHT22;3136;48.788;9.772;2022-08-24T13:48:36;34.60;1.20
6206;DHT22;3136;48.788;9.772;2022-08-24T13:51:34;34.30;1.80
6206;DHT22;3136;48.788;9.772;2022-08-24T13:54:12;34.60;1.00
6206;DHT22;3136;48.788;9.772;2022-08-24T13:57:02;34.70;1.30
6206;DHT22;3136;48.788;9.772;2022-08-24T14:05:30;34.20;1.00
6206;DHT22;3136;48.788;9.772;2022-08-24T14:22:36;31.00;5.10
6206;DHT22;3136;48.788;9.772;2022-08-24T14:33:07;29.80;8.10
6206;DHT22;3136;48.788;9.772;2022-08-24T14:35:57;29.70;8.20
6206;DHT22;3136;48.788;9.772;2022-08-24T14:38:52;29.60;7.90
6206;DHT22;3136;48.788;9.772;2022-08-24T14:44:18;29.40;8.70
6206;DHT22;3136;48.788;9.772;2022-08-24T14:49:36;29.30;10.60
6206;DHT22;3136;48.788;9.772;2022-08-24T14:54:54;29.10;10.80
6206;DHT22;3136;48.788;9.772;2022-08-24T14:57:41;29.00;10.80
6206;DHT22;3136;48.788;9.772;2022-08-24T15:00:19;28.90;11.10
6206;DHT22;3136;48.788;9.772;2022-08-24T15:03:14;28.80;11.10
6206;DHT22;3136;48.788;9.772;2022-08-24T15:08:35;28.50;13.30
6206;DHT22;3136;48.788;9.772;2022-08-24T15:11:13;28.40;13.40
6206;DHT22;3136;48.788;9.772;2022-08-24T15:14:02;28.30;13.40
6206;DHT22;3136;48.788;9.772;2022-08-24T15:19:30;28.20;14.20
6206;DHT22;3136;48.788;9.772;2022-08-24T15:22:25;28.10;15.40
6206;DHT22;3136;48.788;9.772;2022-08-24T15:25:05;28.00;15.00
6206;DHT22;3136;48.788;9.772;2022-08-24T15:27:52;28.00;15.60
6206;DHT22;3136;48.788;9.772;2022-08-24T15:30:24;28.00;16.20
6206;DHT22;3136;48.788;9.772;2022-08-24T15:35:45;27.80;15.40
6206;DHT22;3136;48.788;9.772;2022-08-24T15:38:20;27.80;16.40
6206;DHT22;3136;48.788;9.772;2022-08-24T15:40:49;27.80;16.60
6206;DHT22;3136;48.788;9.772;2022-08-24T15:43:16;27.90;17.60
6206;DHT22;3136;48.788;9.772;2022-08-24T15:45:48;27.80;16.40
6206;DHT22;3136;48.788;9.772;2022-08-24T15:48:16;27.80;16.70
6206;DHT22;3136;48.788;9.772;2022-08-24T15:50:45;27.80;17.00
6206;DHT22;3136;48.788;9.772;2022-08-24T15:55:56;27.70;17.20
6206;DHT22;3136;48.788;9.772;2022-08-24T15:58:24;27.80;17.10
6206;DHT22;3136;48.788;9.772;2022-08-24T16:00:51;27.70;17.20
6206;DHT22;3136;48.788;9.772;2022-08-24T16:06:36;27.70;18.80
6206;DHT22;3136;48.788;9.772;2022-08-24T16:11:49;27.70;18.60
6206;DHT22;3136;48.788;9.772;2022-08-24T16:14:47;27.70;18.60
6206;DHT22;3136;48.788;9.772;2022-08-24T16:19:49;27.60;18.20
6206;DHT22;3136;48.788;9.772;2022-08-24T16:22:31;27.60;18.30
6206;DHT22;3136;48.788;9.772;2022-08-24T16:30:26;27.30;20.40
6206;DHT22;3136;48.788;9.772;2022-08-24T16:32:55;27.20;19.80
6206;DHT22;3136;48.788;9.772;2022-08-24T16:35:22;27.20;19.90
6206;DHT22;3136;48.788;9.772;2022-08-24T16:37:49;27.00;19.50
6206;DHT22;3136;48.788;9.772;2022-08-24T16:40:17;27.00;20.70
6206;DHT22;3136;48.788;9.772;2022-08-24T16:42:43;26.90;21.10
6206;DHT22;3136;48.788;9.772;2022-08-24T16:45:11;26.80;21.90
6206;DHT22;3136;48.788;9.772;2022-08-24T16:47:39;26.80;22.10
6206;DHT22;3136;48.788;9.772;2022-08-24T16:50:05;26.70;22.50
6206;DHT22;3136;48.788;9.772;2022-08-24T16:52:33;26.70;23.10
6206;DHT22;3136;48.788;9.772;2022-08-24T16:54:59;26.60;22.10
6206;DHT22;3136;48.788;9.772;2022-08-24T16:57:27;26.60;23.00
6206;DHT22;3136;48.788;9.772;2022-08-24T16:59:56;26.60;24.50
6206;DHT22;3136;48.788;9.772;2022-08-24T17:02:23;26.60;24.80
6206;DHT22;3136;48.788;9.772;2022-08-24T17:04:50;26.50;23.40
6206;DHT22;3136;48.788;9.772;2022-08-24T17:07:23;26.40;24.10
6206;DHT22;3136;48.788;9.772;2022-08-24T17:09:49;26.50;24.10
6206;DHT22;3136;48.788;9.772;2022-08-24T17:12:15;26.30;23.50
6206;DHT22;3136;48.788;9.772;2022-08-24T17:14:42;26.20;23.10
6206;DHT22;3136;48.788;9.772;2022-08-24T17:17:12;26.10;24.10
6206;DHT22;3136;48.788;9.772;2022-08-24T17:19:38;26.00;24.50
6206;DHT22;3136;48.788;9.772;2022-08-24T17:22:04;26.00;23.80
6206;DHT22;3136;48.788;9.772;2022-08-24T17:24:30;25.90;23.30
6206;DHT22;3136;48.788;9.772;2022-08-24T17:26:57;25.90;23.90
6206;DHT22;3136;48.788;9.772;2022-08-24T17:29:23;25.80;24.80
6206;DHT22;3136;48.788;9.772;2022-08-24T17:31:49;25.70;25.50
6206;DHT22;3136;48.788;9.772;2022-08-24T17:34:16;25.70;25.30
6206;DHT22;3136;48.788;9.772;2022-08-24T17:36:43;25.70;26.50
6206;DHT22;3136;48.788;9.772;2022-08-24T17:39:10;25.60;27.20
6206;DHT22;3136;48.788;9.772;2022-08-24T17:41:36;25.50;45.80
6206;DHT22;3136;48.788;9.772;2022-08-24T17:44:03;25.40;27.60
6206;DHT22;3136;48.788;9.772;2022-08-24T17:46:29;25.30;30.10
6206;DHT22;3136;48.788;9.772;2022-08-24T17:48:56;25.20;31.50
6206;DHT22;3136;48.788;9.772;2022-08-24T17:51:22;25.10;34.90
6206;DHT22;3136;48.788;9.772;2022-08-24T17:53:47;24.90;39.40
6206;DHT22;3136;48.788;9.772;2022-08-24T17:56:14;24.70;46.30
6206;DHT22;3136;48.788;9.772;2022-08-24T17:58:41;24.40;53.30
6206;DHT22;3136;48.788;9.772;2022-08-24T18:01:25;24.20;59.40
6206;DHT22;3136;48.788;9.772;2022-08-24T18:03:51;24.00;70.80
6206;DHT22;3136;48.788;9.772;2022-08-24T18:06:18;23.80;91.80
6206;DHT22;3136;48.788;9.772;2022-08-24T18:08:46;23.70;94.40
6206;DHT22;3136;48.788;9.772;2022-08-24T18:11:11;23.40;98.50
6206;DHT22;3136;48.788;9.772;2022-08-24T18:13:37;23.30;99.90
6206;DHT22;3136;48.788;9.772;2022-08-24T18:16:03;23.10;99.90
6206;DHT22;3136;48.788;9.772;2022-08-24T18:18:29;23.00;99.90
6206;DHT22;3136;48.788;9.772;2022-08-24T18:20:55;22.80;99.90
6206;DHT22;3136;48.788;9.772;2022-08-24T18:23:20;22.70;99.90
6206;DHT22;3136;48.788;9.772;2022-08-24T18:25:48;22.50;99.90
6206;DHT22;3136;48.788;9.772;2022-08-24T18:28:16;22.40;99.90
6206;DHT22;3136;48.788;9.772;2022-08-24T18:30:42;22.30;99.90
6206;DHT22;3136;48.788;9.772;2022-08-24T18:33:09;22.20;99.90
6206;DHT22;3136;48.788;9.772;2022-08-24T18:35:35;22.00;99.90
6206;DHT22;3136;48.788;9.772;2022-08-24T18:38:00;21.90;99.90
6206;DHT22;3136;48.788;9.772;2022-08-24T18:40:26;21.80;99.90
6206;DHT22;3136;48.788;9.772;2022-08-24T18:42:53;21.70;99.90
6206;DHT22;3136;48.788;9.772;2022-08-24T18:45:19;21.60;99.90
6206;DHT22;3136;48.788;9.772;2022-08-24T18:47:44;21.40;1.00
6206;DHT22;3136;48.788;9.772;2022-08-24T18:50:11;21.30;1.00
6206;DHT22;3136;48.788;9.772;2022-08-24T18:52:37;21.30;1.00
6206;DHT22;3136;48.788;9.772;2022-08-24T18:55:05;21.30;1.00
6206;DHT22;3136;48.788;9.772;2022-08-24T18:57:32;21.20;1.00
6206;DHT22;3136;48.788;9.772;2022-08-24T18:59:57;21.10;1.00
6206;DHT22;3136;48.788;9.772;2022-08-24T19:02:23;21.20;1.00
6206;DHT22;3136;48.788;9.772;2022-08-24T19:07:28;20.80;1.00
6206;DHT22;3136;48.788;9.772;2022-08-24T19:09:55;20.70;1.00
6206;DHT22;3136;48.788;9.772;2022-08-24T19:12:21;20.60;99.90
6206;DHT22;3136;48.788;9.772;2022-08-24T19:14:47;20.50;99.90
6206;DHT22;3136;48.788;9.772;2022-08-24T19:17:14;20.50;1.00
6206;DHT22;3136;48.788;9.772;2022-08-24T19:19:41;20.40;1.00
6206;DHT22;3136;48.788;9.772;2022-08-24T19:22:07;20.30;1.00
6206;DHT22;3136;48.788;9.772;2022-08-24T19:24:34;20.30;28.30
6206;DHT22;3136;48.788;9.772;2022-08-24T19:27:00;20.30;94.30
6206;DHT22;3136;48.788;9.772;2022-08-24T19:29:26;20.20;99.90
6206;DHT22;3136;48.788;9.772;2022-08-24T19:31:52;20.10;99.90
6206;DHT22;3136;48.788;9.772;2022-08-24T19:34:18;19.90;99.90